Wetterdaten: Woche 05.03.18 - 11.03.18 (KW10)
Datum Zeit Temp. I. Temp. A. Feuchte I. Feuchte A. Luftdruck Regen Wind Richtung Taupunkt Windchill
05.03.2018 00:00 24,3 °C -0,7 °C 40 % 78 % 997,7 hPa 0,0 l/m² 3,4 km/h (1 Bft) O-NO -4,0 °C -0,7 °C
05.03.2018 01:00 24,2 °C 0,4 °C 40 % 78 % 997,5 hPa 0,0 l/m² 7,5 km/h (2 Bft) O -3,0 °C -1,1 °C
05.03.2018 02:00 24,2 °C 0,9 °C 40 % 77 % 997,0 hPa 0,0 l/m² 6,8 km/h (2 Bft) O -2,5 °C -0,2 °C
05.03.2018 03:00 24,2 °C 1,1 °C 40 % 80 % 997,0 hPa 0,5 l/m² 1,9 km/h (1 Bft) O-SO -1,9 °C 1,1 °C
05.03.2018 04:00 24,1 °C 0,9 °C 40 % 85 % 996,7 hPa 0,0 l/m² 1,3 km/h (1 Bft) O-SO -1,3 °C 0,9 °C
05.03.2018 05:00 24,1 °C 0,6 °C 40 % 87 % 996,4 hPa 0,0 l/m² 1,9 km/h (1 Bft) O-NO -1,4 °C 0,6 °C
05.03.2018 06:00 24,1 °C -0,1 °C 39 % 88 % 996,6 hPa 0,0 l/m² 1,2 km/h (1 Bft) N-NO -1,9 °C -0,1 °C
05.03.2018 07:00 23,9 °C -0,3 °C 37 % 89 % 996,9 hPa 0,0 l/m² 3,3 km/h (1 Bft) O -1,9 °C -0,3 °C
05.03.2018 08:00 23,8 °C 0,6 °C 37 % 90 % 997,3 hPa 0,0 l/m² 1,1 km/h (1 Bft) O -0,8 °C 0,6 °C
05.03.2018 09:00 23,9 °C 2,6 °C 37 % 90 % 997,7 hPa 0,0 l/m² 0,0 km/h (0 Bft) O 1,1 °C 2,6 °C
05.03.2018 10:00 24,1 °C 5,5 °C 37 % 87 % 997,8 hPa 0,0 l/m² 7,2 km/h (2 Bft) S 3,6 °C 3,8 °C
05.03.2018 11:00 24,4 °C 8,2 °C 37 % 81 % 997,7 hPa 0,0 l/m² 10,5 km/h (2 Bft) SW 5,2 °C 5,4 °C
05.03.2018 12:00 24,8 °C 10,7 °C 37 % 73 % 997,4 hPa 0,0 l/m² 12,5 km/h (2 Bft) SW 5,9 °C 7,3 °C
05.03.2018 13:00 25,1 °C 11,3 °C 37 % 67 % 996,9 hPa 0,0 l/m² 10,5 km/h (2 Bft) W-SW 5,5 °C 8,9 °C
05.03.2018 14:00 25,1 °C 11,3 °C 37 % 65 % 996,4 hPa 0,5 l/m² 6,1 km/h (2 Bft) S 5,0 °C 10,7 °C
05.03.2018 15:00 25,0 °C 12,1 °C 37 % 61 % 996,0 hPa 0,0 l/m² 8,3 km/h (2 Bft) S-SO 4,9 °C 10,8 °C
05.03.2018 16:00 24,9 °C 11,4 °C 37 % 60 % 995,7 hPa 0,0 l/m² 8,7 km/h (2 Bft) SO 3,9 °C 9,9 °C
05.03.2018 17:00 24,5 °C 9,0 °C 34 % 63 % 995,7 hPa 0,0 l/m² 2,5 km/h (1 Bft) SO 2,2 °C 9,0 °C
05.03.2018 18:00 24,3 °C 4,5 °C 37 % 71 % 995,6 hPa 0,0 l/m² 1,1 km/h (1 Bft) O-NO -0,3 °C 4,5 °C
05.03.2018 19:00 24,3 °C 2,4 °C 38 % 78 % 995,6 hPa 0,0 l/m² 7,4 km/h (2 Bft) O -1,0 °C 1,1 °C
05.03.2018 20:00 24,2 °C 2,0 °C 39 % 80 % 995,7 hPa 0,0 l/m² 7,1 km/h (2 Bft) O -1,2 °C 1,1 °C
05.03.2018 21:00 24,4 °C 0,6 °C 41 % 82 % 995,5 hPa 0,0 l/m² 4,9 km/h (1 Bft) O-NO -2,2 °C 0,0 °C
05.03.2018 22:00 24,6 °C -1,2 °C 40 % 84 % 995,2 hPa 0,0 l/m² 0,0 km/h (0 Bft) O-NO -3,5 °C -1,2 °C
05.03.2018 23:00 24,3 °C -2,2 °C 39 % 87 % 995,1 hPa 0,0 l/m² 0,0 km/h (0 Bft) O-NO -4,1 °C -2,2 °C
06.03.2018 00:00 24,2 °C -2,9 °C 39 % 88 % 994,9 hPa 0,0 l/m² 0,0 km/h (0 Bft) O-NO -4,7 °C -2,9 °C
06.03.2018 01:00 24,1 °C -3,5 °C 38 % 89 % 994,7 hPa 0,0 l/m² 1,6 km/h (1 Bft) O-NO -5,1 °C -3,5 °C
06.03.2018 02:00 24,2 °C -3,6 °C 38 % 90 % 994,2 hPa 0,0 l/m² 0,1 km/h (0 Bft) O-NO -5,0 °C -3,6 °C
06.03.2018 03:00 24,1 °C -4,0 °C 38 % 90 % 993,6 hPa 0,0 l/m² 0,0 km/h (0 Bft) O-NO -5,4 °C -4,0 °C
06.03.2018 04:00 24,0 °C -4,7 °C 38 % 90 % 993,3 hPa 0,0 l/m² 0,0 km/h (0 Bft) O-NO -6,0 °C -4,7 °C
06.03.2018 05:00 24,0 °C -4,9 °C 38 % 90 % 993,0 hPa 0,0 l/m² 0,0 km/h (0 Bft) O-NO -6,3 °C -4,9 °C
06.03.2018 06:00 24,0 °C -5,1 °C 36 % 90 % 992,8 hPa 0,0 l/m² 0,0 km/h (0 Bft) O-NO -6,4 °C -5,1 °C
06.03.2018 07:00 23,6 °C -5,0 °C 35 % 91 % 993,0 hPa 0,0 l/m² 0,1 km/h (0 Bft) O-NO -6,2 °C -5,0 °C
06.03.2018 08:00 23,7 °C -3,1 °C 35 % 91 % 992,9 hPa 0,0 l/m² 0,0 km/h (0 Bft) O-NO -4,4 °C -3,1 °C
06.03.2018 09:00 23,9 °C -0,4 °C 36 % 91 % 992,8 hPa 0,0 l/m² 3,7 km/h (1 Bft) O-NO -1,7 °C -0,8 °C
06.03.2018 10:00 24,1 °C 1,3 °C 36 % 89 % 992,5 hPa 0,0 l/m² 7,1 km/h (2 Bft) O-SO -0,4 °C -0,2 °C
06.03.2018 11:00 24,2 °C 3,1 °C 36 % 84 % 992,1 hPa 0,0 l/m² 4,4 km/h (1 Bft) NO 0,7 °C 2,7 °C
06.03.2018 12:00 24,2 °C 3,8 °C 36 % 79 % 991,9 hPa 0,0 l/m² 12,0 km/h (2 Bft) O-SO 0,5 °C -0,5 °C
06.03.2018 13:00 24,1 °C 4,1 °C 36 % 77 % 991,5 hPa 0,0 l/m² 11,0 km/h (2 Bft) O-SO 0,3 °C 0,5 °C
06.03.2018 14:00 24,0 °C 4,4 °C 36 % 76 % 991,2 hPa 0,0 l/m² 10,4 km/h (2 Bft) O-SO 0,5 °C 1,2 °C
06.03.2018 15:00 23,8 °C 4,2 °C 36 % 75 % 991,1 hPa 0,0 l/m² 10,1 km/h (2 Bft) O-SO 0,2 °C 1,2 °C
06.03.2018 16:00 23,7 °C 3,3 °C 37 % 78 % 991,1 hPa 0,0 l/m² 11,9 km/h (2 Bft) O-SO -0,2 °C -1,0 °C
06.03.2018 17:00 23,6 °C 1,4 °C 37 % 85 % 991,5 hPa 0,0 l/m² 4,0 km/h (1 Bft) O-SO -0,9 °C 0,8 °C
06.03.2018 18:00 23,6 °C 0,7 °C 38 % 88 % 991,6 hPa 0,0 l/m² 0,1 km/h (0 Bft) O-SO -1,0 °C 0,7 °C
06.03.2018 19:00 23,6 °C 0,6 °C 38 % 90 % 991,6 hPa 0,0 l/m² 0,2 km/h (0 Bft) O-SO -0,8 °C 0,6 °C
06.03.2018 20:00 23,5 °C 0,6 °C 39 % 91 % 991,3 hPa 0,0 l/m² 0,0 km/h (0 Bft) O-SO -0,7 °C 0,6 °C
06.03.2018 21:00 23,6 °C 0,6 °C 40 % 92 % 991,2 hPa 0,0 l/m² 0,1 km/h (0 Bft) O-SO -0,6 °C 0,6 °C
06.03.2018 22:00 23,9 °C 0,6 °C 39 % 92 % 991,2 hPa 0,0 l/m² 0,0 km/h (0 Bft) O -0,5 °C 0,6 °C
06.03.2018 23:00 23,8 °C 0,5 °C 39 % 92 % 991,1 hPa 0,0 l/m² 0,0 km/h (0 Bft) O -0,6 °C 0,5 °C
07.03.2018 00:00 23,7 °C 0,5 °C 39 % 93 % 991,2 hPa 0,0 l/m² 0,2 km/h (0 Bft) O -0,5 °C 0,5 °C
07.03.2018 01:00 23,7 °C 0,5 °C 38 % 93 % 991,4 hPa 0,0 l/m² 0,0 km/h (0 Bft) O -0,5 °C 0,5 °C
07.03.2018 02:00 23,8 °C 0,4 °C 38 % 93 % 991,2 hPa 0,0 l/m² 0,0 km/h (0 Bft) O -0,6 °C 0,4 °C
07.03.2018 03:00 23,7 °C 0,4 °C 38 % 93 % 991,0 hPa 0,0 l/m² 0,0 km/h (0 Bft) O -0,6 °C 0,4 °C
07.03.2018 04:00 23,7 °C 0,4 °C 38 % 93 % 990,9 hPa 0,0 l/m² 0,0 km/h (0 Bft) O -0,6 °C 0,4 °C
07.03.2018 05:00 23,7 °C 0,3 °C 38 % 93 % 991,0 hPa 0,0 l/m² 0,0 km/h (0 Bft) O -0,7 °C 0,3 °C
07.03.2018 06:00 23,6 °C 0,4 °C 37 % 93 % 991,2 hPa 0,0 l/m² 0,0 km/h (0 Bft) O -0,6 °C 0,4 °C
07.03.2018 07:00 23,5 °C 0,6 °C 36 % 94 % 991,5 hPa 0,0 l/m² 0,0 km/h (0 Bft) O -0,3 °C 0,6 °C
07.03.2018 08:00 23,6 °C 1,2 °C 37 % 94 % 991,9 hPa 0,0 l/m² 0,0 km/h (0 Bft) O 0,3 °C 1,2 °C
07.03.2018 09:00 23,7 °C 1,8 °C 37 % 94 % 992,3 hPa 0,5 l/m² 2,7 km/h (1 Bft) O-SO 0,9 °C 1,8 °C
07.03.2018 10:00 23,8 °C 2,9 °C 37 % 93 % 992,7 hPa 2,6 l/m² 3,8 km/h (1 Bft) SO 1,8 °C 2,7 °C
07.03.2018 11:00 24,1 °C 4,2 °C 37 % 89 % 993,0 hPa 6,2 l/m² 1,7 km/h (1 Bft) W-SW 2,7 °C 4,2 °C
07.03.2018 12:00 24,1 °C 4,4 °C 37 % 86 % 993,3 hPa 4,1 l/m² 0,2 km/h (0 Bft) W-SW 2,2 °C 4,4 °C
07.03.2018 13:00 24,1 °C 4,7 °C 37 % 84 % 993,5 hPa 1,0 l/m² 0,1 km/h (0 Bft) W-SW 2,2 °C 4,7 °C
07.03.2018 14:00 24,1 °C 5,5 °C 37 % 83 % 993,6 hPa 0,0 l/m² 0,4 km/h (0 Bft) W-SW 2,9 °C 5,5 °C
07.03.2018 15:00 24,2 °C 5,6 °C 37 % 81 % 994,0 hPa 0,0 l/m² 1,7 km/h (1 Bft) S-SO 2,5 °C 5,6 °C
07.03.2018 16:00 24,0 °C 4,6 °C 37 % 82 % 994,2 hPa 0,0 l/m² 0,6 km/h (0 Bft) S-SO 1,9 °C 4,6 °C
07.03.2018 17:00 23,7 °C 3,0 °C 37 % 85 % 994,8 hPa 0,0 l/m² 0,5 km/h (0 Bft) S-SO 0,8 °C 3,0 °C
07.03.2018 18:00 23,5 °C 2,3 °C 37 % 88 % 995,3 hPa 0,0 l/m² 1,2 km/h (1 Bft) S-SO 0,5 °C 2,3 °C
07.03.2018 19:00 23,4 °C 1,6 °C 37 % 90 % 995,8 hPa 0,0 l/m² 0,5 km/h (0 Bft) NW 0,1 °C 1,6 °C
07.03.2018 20:00 23,3 °C 1,3 °C 39 % 90 % 996,1 hPa 0,0 l/m² 0,5 km/h (0 Bft) NW -0,1 °C 1,3 °C
07.03.2018 21:00 23,6 °C 1,2 °C 40 % 91 % 996,5 hPa 0,0 l/m² 1,2 km/h (1 Bft) N-NW -0,1 °C 1,2 °C
07.03.2018 22:00 23,8 °C 0,7 °C 39 % 92 % 996,8 hPa 0,0 l/m² 1,6 km/h (1 Bft) N-NW -0,5 °C 0,7 °C
07.03.2018 23:00 23,6 °C 1,3 °C 39 % 92 % 997,1 hPa 0,0 l/m² 3,1 km/h (1 Bft) O-NO 0,1 °C 1,2 °C
08.03.2018 00:00 23,5 °C 2,3 °C 40 % 92 % 997,3 hPa 0,0 l/m² 2,8 km/h (1 Bft) NO 1,2 °C 2,1 °C
08.03.2018 01:00 23,5 °C 3,6 °C 40 % 91 % 997,7 hPa 0,0 l/m² 5,1 km/h (1 Bft) W-SW 2,3 °C 2,0 °C
08.03.2018 02:00 23,5 °C 3,7 °C 40 % 89 % 997,9 hPa 0,0 l/m² 10,0 km/h (2 Bft) W-SW 2,1 °C 0,7 °C
08.03.2018 03:00 23,4 °C 3,7 °C 40 % 89 % 998,3 hPa 0,0 l/m² 14,7 km/h (3 Bft) SW 2,1 °C -2,0 °C
08.03.2018 04:00 23,3 °C 3,6 °C 40 % 90 % 998,8 hPa 0,0 l/m² 10,8 km/h (2 Bft) W-SW 2,1 °C 0,0 °C
08.03.2018 05:00 23,2 °C 3,7 °C 40 % 89 % 999,1 hPa 0,0 l/m² 13,9 km/h (3 Bft) SW 2,2 °C -1,7 °C
08.03.2018 06:00 23,2 °C 3,9 °C 39 % 89 % 999,8 hPa 0,0 l/m² 21,3 km/h (4 Bft) W-SW 2,2 °C -5,0 °C
08.03.2018 07:00 23,0 °C 3,6 °C 38 % 89 % 1000,5 hPa 0,0 l/m² 20,0 km/h (4 Bft) W-SW 2,0 °C -4,8 °C
08.03.2018 08:00 22,9 °C 3,9 °C 38 % 89 % 1001,5 hPa 0,0 l/m² 16,7 km/h (3 Bft) W-SW 2,3 °C -2,9 °C
08.03.2018 09:00 23,0 °C 5,3 °C 38 % 86 % 1002,2 hPa 0,0 l/m² 19,6 km/h (3 Bft) W-SW 3,1 °C -2,4 °C
08.03.2018 10:00 23,6 °C 7,4 °C 38 % 79 % 1002,7 hPa 0,0 l/m² 24,5 km/h (4 Bft) W 4,0 °C -1,2 °C
08.03.2018 11:00 23,9 °C 8,4 °C 37 % 73 % 1002,6 hPa 0,0 l/m² 26,8 km/h (4 Bft) W-SW 3,8 °C -0,6 °C
08.03.2018 12:00 24,2 °C 9,2 °C 37 % 70 % 1002,6 hPa 0,0 l/m² 24,2 km/h (4 Bft) W-SW 4,0 °C 1,1 °C
08.03.2018 13:00 24,6 °C 10,4 °C 37 % 66 % 1002,2 hPa 0,0 l/m² 25,7 km/h (4 Bft) W-SW 4,4 °C 2,4 °C
08.03.2018 14:00 24,7 °C 10,5 °C 36 % 65 % 1002,1 hPa 0,0 l/m² 23,4 km/h (4 Bft) W-SW 4,3 °C 3,1 °C
08.03.2018 15:00 24,7 °C 10,6 °C 37 % 63 % 1001,5 hPa 0,0 l/m² 21,6 km/h (4 Bft) SW 3,8 °C 3,8 °C
08.03.2018 16:00 24,4 °C 9,5 °C 37 % 65 % 1001,2 hPa 0,0 l/m² 20,5 km/h (4 Bft) SW 3,2 °C 2,8 °C
08.03.2018 17:00 24,1 °C 8,5 °C 37 % 68 % 1001,0 hPa 0,0 l/m² 11,6 km/h (2 Bft) S-SW 2,9 °C 5,3 °C
08.03.2018 18:00 23,8 °C 6,9 °C 39 % 73 % 1000,8 hPa 0,0 l/m² 9,9 km/h (2 Bft) S 2,4 °C 4,3 °C
08.03.2018 19:00 23,8 °C 6,9 °C 40 % 73 % 1000,3 hPa 0,0 l/m² 13,2 km/h (3 Bft) S-SO 2,4 °C 2,4 °C
08.03.2018 20:00 23,7 °C 6,7 °C 40 % 74 % 999,7 hPa 0,0 l/m² 14,1 km/h (3 Bft) S-SO 2,3 °C 1,8 °C
08.03.2018 21:00 23,6 °C 6,5 °C 40 % 77 % 999,3 hPa 0,0 l/m² 12,6 km/h (2 Bft) S 2,7 °C 2,8 °C
08.03.2018 22:00 23,6 °C 5,7 °C 40 % 83 % 1000,3 hPa 1,0 l/m² 24,2 km/h (4 Bft) W-SW 3,1 °C -3,3 °C
08.03.2018 23:00 23,5 °C 4,5 °C 40 % 87 % 1001,1 hPa 0,0 l/m² 20,9 km/h (4 Bft) W-SW 2,5 °C -3,9 °C
09.03.2018 00:00 23,4 °C 3,3 °C 40 % 88 % 1001,9 hPa 0,0 l/m² 13,2 km/h (3 Bft) W 1,5 °C -1,7 °C
09.03.2018 01:00 23,3 °C 2,3 °C 40 % 88 % 1002,5 hPa 0,0 l/m² 14,2 km/h (3 Bft) W-SW 0,6 °C -3,4 °C
09.03.2018 02:00 23,3 °C 1,4 °C 40 % 89 % 1002,7 hPa 0,0 l/m² 7,1 km/h (2 Bft) W-SW -0,2 °C -0,6 °C
09.03.2018 03:00 23,3 °C 2,0 °C 40 % 90 % 1003,1 hPa 0,0 l/m² 5,6 km/h (2 Bft) W 0,5 °C 0,8 °C
09.03.2018 04:00 23,3 °C 2,5 °C 40 % 88 % 1003,4 hPa 0,0 l/m² 18,3 km/h (3 Bft) W-SW 0,7 °C -5,5 °C
09.03.2018 05:00 23,4 °C 2,1 °C 39 % 88 % 1004,0 hPa 0,0 l/m² 16,6 km/h (3 Bft) W-SW 0,4 °C -5,2 °C
09.03.2018 06:00 23,4 °C 1,7 °C 39 % 88 % 1004,7 hPa 0,0 l/m² 15,9 km/h (3 Bft) W-SW -0,1 °C -5,4 °C
09.03.2018 07:00 23,3 °C 2,2 °C 38 % 88 % 1005,4 hPa 0,0 l/m² 18,2 km/h (3 Bft) W-SW 0,5 °C -5,8 °C
09.03.2018 08:00 23,5 °C 4,1 °C 38 % 85 % 1005,6 hPa 0,0 l/m² 26,0 km/h (4 Bft) W-SW 1,7 °C -6,3 °C
09.03.2018 09:00 24,0 °C 5,6 °C 38 % 81 % 1006,0 hPa 0,0 l/m² 31,1 km/h (5 Bft) W-SW 2,6 °C -5,7 °C
09.03.2018 10:00 24,5 °C 7,0 °C 37 % 77 % 1006,3 hPa 0,0 l/m² 29,8 km/h (5 Bft) W-SW 3,3 °C -3,4 °C
09.03.2018 11:00 24,9 °C 8,2 °C 37 % 75 % 1006,5 hPa 0,0 l/m² 29,1 km/h (5 Bft) W-SW 4,0 °C -1,5 °C
09.03.2018 12:00 25,1 °C 9,1 °C 37 % 71 % 1006,6 hPa 0,0 l/m² 29,9 km/h (5 Bft) W-SW 4,2 °C -0,5 °C
09.03.2018 13:00 25,3 °C 10,0 °C 36 % 68 % 1006,7 hPa 0,0 l/m² 23,4 km/h (4 Bft) W-SW 4,5 °C 2,5 °C
09.03.2018 14:00 25,4 °C 10,6 °C 36 % 65 % 1006,6 hPa 0,0 l/m² 23,1 km/h (4 Bft) W-SW 4,3 °C 3,3 °C
09.03.2018 15:00 25,2 °C 10,4 °C 37 % 63 % 1006,6 hPa 0,0 l/m² 17,1 km/h (3 Bft) W 3,7 °C 5,0 °C
09.03.2018 16:00 24,8 °C 8,1 °C 37 % 68 % 1006,8 hPa 0,0 l/m² 12,8 km/h (3 Bft) W-SW 2,6 °C 4,1 °C
09.03.2018 17:00 24,6 °C 7,0 °C 39 % 72 % 1007,1 hPa 0,0 l/m² 5,7 km/h (2 Bft) SW 2,4 °C 6,5 °C
09.03.2018 18:00 24,3 °C 5,3 °C 39 % 77 % 1007,2 hPa 0,0 l/m² 1,5 km/h (1 Bft) SW 1,7 °C 5,3 °C
09.03.2018 19:00 24,2 °C 5,0 °C 39 % 80 % 1007,4 hPa 0,0 l/m² 1,0 km/h (0 Bft) S-SO 1,7 °C 5,0 °C
09.03.2018 20:00 24,0 °C 4,5 °C 38 % 81 % 1007,4 hPa 0,0 l/m² 1,3 km/h (1 Bft) SO 1,5 °C 4,5 °C
09.03.2018 21:00 24,1 °C 4,0 °C 39 % 82 % 1007,3 hPa 0,0 l/m² 0,1 km/h (0 Bft) NW 1,2 °C 4,0 °C
09.03.2018 22:00 24,3 °C 2,8 °C 40 % 85 % 1007,1 hPa 0,0 l/m² 0,1 km/h (0 Bft) NW 0,5 °C 2,8 °C
09.03.2018 23:00 24,1 °C 2,6 °C 41 % 86 % 1006,6 hPa 0,0 l/m² 1,8 km/h (1 Bft) SO 0,5 °C 2,6 °C
10.03.2018 00:00 23,9 °C 2,3 °C 42 % 87 % 1006,0 hPa 0,0 l/m² 1,5 km/h (1 Bft) SO 0,4 °C 2,3 °C
10.03.2018 01:00 23,8 °C 2,2 °C 42 % 88 % 1005,7 hPa 0,0 l/m² 0,8 km/h (0 Bft) SO 0,5 °C 2,2 °C
10.03.2018 02:00 23,8 °C 2,1 °C 42 % 89 % 1005,3 hPa 0,0 l/m² 0,0 km/h (0 Bft) SO 0,4 °C 2,1 °C
10.03.2018 03:00 23,6 °C 2,7 °C 42 % 90 % 1004,9 hPa 0,0 l/m² 1,0 km/h (0 Bft) O-SO 1,3 °C 2,7 °C
10.03.2018 04:00 23,6 °C 3,5 °C 41 % 91 % 1004,2 hPa 0,5 l/m² 0,7 km/h (0 Bft) O 2,1 °C 3,5 °C
10.03.2018 05:00 23,5 °C 3,7 °C 41 % 92 % 1003,7 hPa 0,5 l/m² 1,1 km/h (0 Bft) O 2,5 °C 3,7 °C
10.03.2018 06:00 23,5 °C 4,3 °C 41 % 93 % 1003,4 hPa 0,5 l/m² 0,9 km/h (0 Bft) O-SO 3,2 °C 4,3 °C
10.03.2018 07:00 23,4 °C 5,0 °C 42 % 93 % 1003,3 hPa 0,5 l/m² 2,2 km/h (1 Bft) O 3,9 °C 5,0 °C
10.03.2018 08:00 23,2 °C 6,1 °C 41 % 93 % 1003,3 hPa 0,0 l/m² 2,7 km/h (1 Bft) S-SO 5,1 °C 6,0 °C
10.03.2018 09:00 23,3 °C 7,1 °C 41 % 93 % 1003,1 hPa 0,5 l/m² 4,1 km/h (1 Bft) SO 6,1 °C 7,0 °C
10.03.2018 10:00 23,2 °C 8,1 °C 41 % 93 % 1002,8 hPa 0,0 l/m² 4,2 km/h (1 Bft) SO 7,1 °C 8,1 °C
10.03.2018 11:00 23,2 °C 10,4 °C 42 % 92 % 1002,4 hPa 0,0 l/m² 7,4 km/h (2 Bft) S-SO 9,1 °C 9,3 °C
10.03.2018 12:00 23,6 °C 13,6 °C 44 % 86 % 1002,1 hPa 0,0 l/m² 12,1 km/h (2 Bft) W-SW 11,3 °C 10,9 °C
10.03.2018 13:00 23,8 °C 15,4 °C 43 % 76 % 1001,8 hPa 0,0 l/m² 13,0 km/h (3 Bft) W-SW 11,3 °C 12,5 °C
10.03.2018 14:00 23,9 °C 16,6 °C 43 % 73 % 1001,5 hPa 0,0 l/m² 14,8 km/h (3 Bft) W-SW 11,7 °C 13,4 °C
10.03.2018 15:00 23,7 °C 16,5 °C 43 % 70 % 1001,6 hPa 0,0 l/m² 20,7 km/h (4 Bft) SW 11,0 °C 11,7 °C
10.03.2018 16:00 23,6 °C 15,7 °C 43 % 70 % 1001,7 hPa 0,0 l/m² 16,3 km/h (3 Bft) SW 10,3 °C 11,8 °C
10.03.2018 17:00 23,5 °C 14,3 °C 43 % 73 % 1001,9 hPa 0,0 l/m² 13,7 km/h (3 Bft) S-SW 9,5 °C 11,0 °C
10.03.2018 18:00 23,3 °C 12,5 °C 43 % 76 % 1002,2 hPa 0,0 l/m² 10,7 km/h (2 Bft) SW 8,4 °C 10,0 °C
10.03.2018 19:00 23,4 °C 12,1 °C 46 % 78 % 1002,3 hPa 0,0 l/m² 10,1 km/h (2 Bft) SW 8,4 °C 10,1 °C
10.03.2018 20:00 23,5 °C 11,1 °C 44 % 81 % 1002,3 hPa 0,0 l/m² 8,9 km/h (2 Bft) S-SW 7,9 °C 9,4 °C
10.03.2018 21:00 23,7 °C 10,2 °C 44 % 82 % 1002,4 hPa 0,0 l/m² 9,6 km/h (2 Bft) S-SW 7,4 °C 8,2 °C
10.03.2018 22:00 23,8 °C 9,5 °C 44 % 85 % 1002,5 hPa 0,0 l/m² 5,8 km/h (2 Bft) S-SW 7,0 °C 9,0 °C
10.03.2018 23:00 23,9 °C 9,1 °C 44 % 87 % 1002,2 hPa 0,0 l/m² 5,9 km/h (2 Bft) S 7,0 °C 8,3 °C
11.03.2018 00:00 23,7 °C 8,9 °C 44 % 87 % 1001,9 hPa 0,0 l/m² 5,3 km/h (1 Bft) S 6,9 °C 8,5 °C
11.03.2018 01:00 23,6 °C 8,2 °C 44 % 88 % 1001,7 hPa 0,0 l/m² 5,2 km/h (1 Bft) S-SO 6,3 °C 8,0 °C
11.03.2018 02:00 23,6 °C 7,3 °C 44 % 89 % 1001,4 hPa 0,0 l/m² 3,3 km/h (1 Bft) O 5,6 °C 7,1 °C
11.03.2018 03:00 23,4 °C 7,4 °C 44 % 90 % 1001,1 hPa 0,0 l/m² 2,4 km/h (1 Bft) S 5,9 °C 7,2 °C
11.03.2018 04:00 23,4 °C 6,6 °C 44 % 91 % 1000,7 hPa 0,0 l/m² 1,7 km/h (1 Bft) O-SO 5,2 °C 6,6 °C
11.03.2018 05:00 23,4 °C 6,1 °C 43 % 92 % 1000,2 hPa 0,0 l/m² 3,4 km/h (1 Bft) O-SO 4,8 °C 6,1 °C
11.03.2018 06:00 23,4 °C 6,3 °C 43 % 92 % 1000,0 hPa 0,0 l/m² 2,9 km/h (1 Bft) NO 5,1 °C 6,3 °C
11.03.2018 07:00 23,3 °C 6,9 °C 43 % 93 % 999,9 hPa 0,0 l/m² 0,7 km/h (0 Bft) O-NO 5,9 °C 6,9 °C
11.03.2018 08:00 23,3 °C 7,7 °C 44 % 93 % 999,8 hPa 0,0 l/m² 0,9 km/h (0 Bft) O-SO 6,6 °C 7,7 °C
11.03.2018 09:00 23,4 °C 9,4 °C 43 % 92 % 999,5 hPa 0,0 l/m² 2,5 km/h (1 Bft) SO 8,2 °C 9,3 °C
11.03.2018 10:00 23,5 °C 12,2 °C 42 % 88 % 999,0 hPa 0,0 l/m² 7,5 km/h (2 Bft) S-SO 10,3 °C 11,0 °C
11.03.2018 11:00 23,9 °C 15,0 °C 42 % 80 % 998,6 hPa 0,0 l/m² 10,1 km/h (2 Bft) S-SO 11,6 °C 13,1 °C
11.03.2018 12:00 24,1 °C 15,9 °C 43 % 76 % 997,7 hPa 0,0 l/m² 11,7 km/h (2 Bft) SO 11,7 °C 13,6 °C
11.03.2018 13:00 24,2 °C 17,4 °C 44 % 72 % 996,8 hPa 0,0 l/m² 8,9 km/h (2 Bft) SO 12,3 °C 16,2 °C
11.03.2018 14:00 24,2 °C 17,8 °C 44 % 70 % 996,2 hPa 0,0 l/m² 8,2 km/h (2 Bft) S 12,2 °C 16,8 °C
11.03.2018 15:00 24,0 °C 17,8 °C 44 % 69 % 995,5 hPa 0,0 l/m² 5,2 km/h (1 Bft) S-SO 12,1 °C 17,6 °C
11.03.2018 16:00 23,8 °C 17,6 °C 44 % 69 % 994,8 hPa 0,0 l/m² 9,0 km/h (2 Bft) O-SO 11,8 °C 16,3 °C
11.03.2018 17:00 23,8 °C 16,1 °C 44 % 71 % 994,6 hPa 0,0 l/m² 10,1 km/h (2 Bft) O-SO 10,9 °C 14,3 °C
11.03.2018 18:00 23,6 °C 13,4 °C 44 % 77 % 994,5 hPa 0,0 l/m² 8,0 km/h (2 Bft) O-SO 9,6 °C 12,4 °C
11.03.2018 19:00 23,4 °C 12,2 °C 44 % 81 % 994,2 hPa 0,0 l/m² 9,0 km/h (2 Bft) O 9,1 °C 10,4 °C
11.03.2018 20:00 23,6 °C 11,2 °C 48 % 83 % 994,1 hPa 0,0 l/m² 0,7 km/h (0 Bft) O 8,4 °C 11,2 °C
11.03.2018 21:00 24,0 °C 9,6 °C 50 % 86 % 993,9 hPa 0,0 l/m² 0,4 km/h (0 Bft) O 7,4 °C 9,6 °C
11.03.2018 22:00 24,0 °C 8,1 °C 47 % 89 % 993,7 hPa 0,0 l/m² 0,7 km/h (0 Bft) O 6,4 °C 8,1 °C
11.03.2018 23:00 23,8 °C 7,4 °C 46 % 90 % 993,3 hPa 0,0 l/m² 0,9 km/h (0 Bft) O 5,9 °C 7,4 °C
Min-Datum _ 08.03.18 06.03.18 06.03.18 05.03.18 07.03.18 - 11.03.18 - 06.03.18 09.03.18
_ Min-Zeit 09:01 07:27 06:49 16:01 04:37 - 23:01 - 05:39 07:19
Minimum _ 22,9 °C -5,2 °C 33 % 59 % 990,8 hPa - 0,0 km/h (0 Bft) - -6,6 °C -10,5 °C
Max-Datum _ 09.03.18 11.03.18 11.03.18 10.03.18 09.03.18 07.03.18 08.03.18 - 11.03.18 11.03.18
_ Max-Zeit 15:01 15:01 21:15 09:01 20:13 11:01 22:13 - 13:51 15:01
Maximum _ 25,4 °C 18,4 °C 51 % 94 % 1007,8 hPa 6,2 l/m² 50,0 km/h
W-SW (7 Bft)
- 12,7 °C 18,4 °C
Durchschnitt _ 23,9 °C 5,3 °C 40 % 83 % 998,4 hPa #19,2 l/m² 7,4 km/h (2 Bft) W-SW 2,6 °C 3,2 °C
© 2009 Mathias Hoßbach